createdAt,value
2023-11-30T00:00:14.996Z,83.61
2023-11-30T00:02:38.083Z,83.50
2023-11-30T00:05:00.827Z,83.67
2023-11-30T00:07:23.423Z,83.24
2023-11-30T00:09:46.182Z,82.77
2023-11-30T00:12:09.993Z,82.94
2023-11-30T00:14:35.535Z,82.94
2023-11-30T00:16:58.574Z,83.31
2023-11-30T00:19:21.327Z,83.48
2023-11-30T00:21:44.000Z,83.64
2023-11-30T00:24:13.212Z,83.52
2023-11-30T00:26:36.241Z,83.10
2023-11-30T00:28:59.137Z,83.16
2023-11-30T00:31:21.907Z,82.88
2023-11-30T00:33:44.641Z,82.83
2023-11-30T00:36:15.218Z,82.99
2023-11-30T00:38:38.345Z,82.90
2023-11-30T00:41:00.986Z,83.38
2023-11-30T00:43:23.962Z,83.44
2023-11-30T00:45:55.252Z,83.61
2023-11-30T00:48:23.688Z,83.61
2023-11-30T00:50:46.528Z,83.58
2023-11-30T00:53:09.252Z,83.96
2023-11-30T00:55:32.012Z,83.86
2023-11-30T00:57:54.841Z,84.47
2023-11-30T01:00:18.868Z,84.64
2023-11-30T01:02:42.054Z,84.55
2023-11-30T01:05:05.233Z,84.40
2023-11-30T01:07:28.214Z,84.64
2023-11-30T01:09:50.829Z,84.28
2023-11-30T01:12:15.207Z,84.47
2023-11-30T01:14:41.523Z,84.34
2023-11-30T01:17:04.390Z,84.29
2023-11-30T01:19:27.058Z,84.08
2023-11-30T01:21:50.079Z,83.79
2023-11-30T01:24:13.841Z,84.14
2023-11-30T01:26:36.951Z,84.32
2023-11-30T01:28:59.685Z,84.86
2023-11-30T01:31:22.327Z,84.75
2023-11-30T01:33:46.392Z,85.23
2023-11-30T01:36:14.912Z,85.15
2023-11-30T01:38:38.033Z,85.32
2023-11-30T01:41:00.770Z,85.65
2023-11-30T01:43:23.945Z,85.55
2023-11-30T01:45:47.551Z,85.92
2023-11-30T01:48:12.892Z,85.74
2023-11-30T01:50:36.145Z,85.65
2023-11-30T01:53:00.025Z,85.53
2023-11-30T01:55:22.890Z,85.60
2023-11-30T01:57:45.790Z,85.40
2023-11-30T02:00:18.340Z,85.56
2023-11-30T02:02:44.783Z,85.66
2023-11-30T02:05:07.938Z,85.98
2023-11-30T02:07:30.580Z,86.42
2023-11-30T02:09:53.433Z,86.89
2023-11-30T02:12:16.645Z,86.46
2023-11-30T02:14:39.618Z,86.63
2023-11-30T02:17:04.397Z,86.82
2023-11-30T02:19:27.315Z,87.25
2023-11-30T02:21:51.562Z,87.24
2023-11-30T02:24:15.939Z,86.80
2023-11-30T02:26:39.085Z,86.62
2023-11-30T02:29:01.727Z,86.22
2023-11-30T02:31:24.443Z,85.84
2023-11-30T02:33:47.303Z,85.14
2023-11-30T02:36:13.321Z,84.99
2023-11-30T02:38:36.694Z,84.88
2023-11-30T02:40:59.490Z,84.44
2023-11-30T02:43:23.474Z,84.18
2023-11-30T02:45:46.421Z,83.82
2023-11-30T02:48:16.070Z,83.26
2023-11-30T02:50:39.181Z,83.01
2023-11-30T02:53:02.080Z,82.78
2023-11-30T02:55:24.841Z,83.06
2023-11-30T02:57:47.699Z,83.05
2023-11-30T03:00:15.888Z,82.92
2023-11-30T03:02:39.181Z,82.80
2023-11-30T03:05:01.906Z,82.65
2023-11-30T03:07:24.983Z,82.61
2023-11-30T03:09:47.743Z,82.92
2023-11-30T03:12:11.989Z,82.71
2023-11-30T03:14:35.178Z,82.74
2023-11-30T03:16:58.358Z,82.71
2023-11-30T03:19:21.111Z,82.48
2023-11-30T03:21:43.792Z,82.51
2023-11-30T03:24:13.342Z,82.52
2023-11-30T03:26:36.457Z,82.28
2023-11-30T03:28:59.221Z,82.08
2023-11-30T03:31:22.223Z,81.70
2023-11-30T03:33:44.972Z,81.40
2023-11-30T03:36:29.637Z,81.42
2023-11-30T03:38:55.273Z,81.77
2023-11-30T03:41:18.058Z,81.85
2023-11-30T03:43:40.705Z,82.04
2023-11-30T03:46:03.427Z,82.15
2023-11-30T03:48:27.077Z,82.27
2023-11-30T03:50:49.823Z,82.22
2023-11-30T03:53:12.669Z,81.98
2023-11-30T03:55:35.319Z,81.93
2023-11-30T03:57:58.009Z,81.65
2023-11-30T04:00:21.669Z,81.29
2023-11-30T04:02:44.751Z,81.08
2023-11-30T04:05:08.760Z,80.61
2023-11-30T04:07:31.522Z,80.78
2023-11-30T04:09:54.195Z,80.71
2023-11-30T04:12:18.267Z,80.28
2023-11-30T04:14:41.292Z,80.23
2023-11-30T04:17:04.898Z,80.43
2023-11-30T04:19:27.812Z,80.47
2023-11-30T04:21:50.548Z,80.67
2023-11-30T04:24:17.422Z,80.50
2023-11-30T04:26:40.693Z,80.34
2023-11-30T04:29:03.403Z,80.28
2023-11-30T04:31:26.582Z,79.85
2023-11-30T04:33:49.365Z,79.10
2023-11-30T04:36:15.144Z,79.07
2023-11-30T04:38:38.093Z,79.19
2023-11-30T04:41:00.811Z,79.39
2023-11-30T04:43:26.731Z,79.19
2023-11-30T04:45:49.822Z,79.30
2023-11-30T04:48:15.009Z,78.81
2023-11-30T04:50:38.022Z,78.61
2023-11-30T04:53:00.697Z,78.64
2023-11-30T04:55:23.690Z,79.01
2023-11-30T04:57:46.889Z,78.68
2023-11-30T05:00:16.999Z,78.88
2023-11-30T05:02:53.791Z,78.54
2023-11-30T05:05:16.653Z,78.49
2023-11-30T05:07:39.231Z,78.79
2023-11-30T05:10:02.016Z,78.77
2023-11-30T05:12:24.990Z,79.31
2023-11-30T05:14:47.614Z,78.82
2023-11-30T05:17:10.295Z,78.80
2023-11-30T05:19:32.965Z,78.89
2023-11-30T05:21:55.779Z,78.96
2023-11-30T05:24:19.139Z,79.15
2023-11-30T05:26:42.398Z,78.99
2023-11-30T05:29:05.105Z,78.93
2023-11-30T05:31:27.958Z,78.29
2023-11-30T05:33:51.439Z,78.61
2023-11-30T05:36:15.158Z,78.48
2023-11-30T05:38:38.424Z,78.57
2023-11-30T05:41:01.280Z,79.01
2023-11-30T05:43:24.034Z,78.96
2023-11-30T05:45:46.743Z,78.84
2023-11-30T05:48:11.704Z,78.82
2023-11-30T05:50:36.162Z,79.04
2023-11-30T05:52:59.015Z,78.43
2023-11-30T05:55:22.158Z,78.88
2023-11-30T05:57:44.961Z,78.32
2023-11-30T06:00:28.255Z,78.41
2023-11-30T06:02:51.880Z,78.15
2023-11-30T06:05:14.850Z,78.15
2023-11-30T06:07:37.811Z,78.12
2023-11-30T06:10:00.917Z,77.75
2023-11-30T06:12:23.882Z,77.96
2023-11-30T06:14:46.732Z,78.08
2023-11-30T06:17:09.497Z,78.16
2023-11-30T06:19:32.555Z,77.37
2023-11-30T06:21:55.372Z,77.32
2023-11-30T06:24:18.557Z,77.96
2023-11-30T06:26:43.078Z,77.70
2023-11-30T06:29:05.798Z,77.58
2023-11-30T06:31:28.582Z,77.78
2023-11-30T06:33:51.567Z,77.14
2023-11-30T06:36:15.179Z,76.99
2023-11-30T06:38:38.222Z,77.12
2023-11-30T06:41:01.546Z,77.20
2023-11-30T06:43:24.307Z,77.20
2023-11-30T06:45:47.169Z,76.93
2023-11-30T06:48:11.673Z,77.49
2023-11-30T06:50:35.123Z,77.60
2023-11-30T06:52:57.904Z,77.71
2023-11-30T06:55:20.885Z,78.01
2023-11-30T06:57:44.344Z,78.06
2023-11-30T07:00:13.798Z,78.05
2023-11-30T07:02:41.157Z,77.73
2023-11-30T07:05:06.804Z,77.52
2023-11-30T07:07:34.240Z,77.69
2023-11-30T07:10:00.960Z,77.63
2023-11-30T07:12:24.744Z,77.75
2023-11-30T07:14:51.119Z,77.82
2023-11-30T07:17:14.870Z,77.38
2023-11-30T07:19:40.645Z,77.74
2023-11-30T07:22:03.500Z,77.90
2023-11-30T07:24:26.173Z,78.40
2023-11-30T07:26:51.790Z,78.41
2023-11-30T07:29:15.595Z,78.39
2023-11-30T07:31:38.449Z,78.44
2023-11-30T07:34:01.261Z,78.77
2023-11-30T07:36:24.254Z,78.88
2023-11-30T07:38:47.108Z,78.99
2023-11-30T07:41:10.499Z,79.80
2023-11-30T07:43:33.513Z,80.41
2023-11-30T07:45:56.674Z,81.26
2023-11-30T07:48:24.952Z,81.83
2023-11-30T07:50:47.651Z,82.11
2023-11-30T07:53:10.959Z,82.87
2023-11-30T07:55:34.508Z,84.15
2023-11-30T07:57:57.352Z,84.70
2023-11-30T08:00:21.121Z,85.04
2023-11-30T08:02:44.571Z,85.45
2023-11-30T08:05:07.623Z,85.76
2023-11-30T08:07:31.888Z,85.80
2023-11-30T08:09:54.772Z,86.00
2023-11-30T08:12:18.561Z,86.23
2023-11-30T08:14:41.763Z,86.13
2023-11-30T08:17:06.350Z,86.17
2023-11-30T08:19:29.154Z,86.29
2023-11-30T08:21:53.585Z,86.50
2023-11-30T08:24:16.796Z,86.71
2023-11-30T08:26:39.908Z,86.67
2023-11-30T08:29:02.715Z,86.88
2023-11-30T08:31:25.725Z,86.99
2023-11-30T08:33:48.722Z,87.01
2023-11-30T08:36:13.193Z,86.86
2023-11-30T08:38:39.544Z,87.24
2023-11-30T08:41:02.593Z,87.08
2023-11-30T08:43:25.519Z,87.13
2023-11-30T08:45:48.478Z,87.24
2023-11-30T08:48:16.211Z,87.34
2023-11-30T08:50:42.225Z,87.36
2023-11-30T08:53:05.352Z,87.25
2023-11-30T08:55:28.070Z,86.95
2023-11-30T08:57:52.155Z,87.15
2023-11-30T09:00:20.204Z,87.24
2023-11-30T09:02:44.099Z,86.72
2023-11-30T09:05:09.063Z,86.71
2023-11-30T09:07:32.225Z,86.97
2023-11-30T09:09:55.140Z,86.69
2023-11-30T09:12:18.301Z,86.96
2023-11-30T09:14:41.434Z,87.20
2023-11-30T09:17:06.365Z,87.12
2023-11-30T09:19:29.979Z,87.52
2023-11-30T09:21:53.513Z,87.65
2023-11-30T09:24:19.155Z,87.92
2023-11-30T09:26:45.354Z,87.95
2023-11-30T09:29:09.099Z,88.46
2023-11-30T09:31:33.388Z,87.41
2023-11-30T09:33:56.657Z,87.16
2023-11-30T09:36:20.385Z,86.93
2023-11-30T09:38:43.519Z,86.48
2023-11-30T09:41:11.609Z,86.90
2023-11-30T09:43:35.175Z,86.37
2023-11-30T09:45:57.938Z,86.96
2023-11-30T09:48:24.604Z,87.16
2023-11-30T09:50:49.246Z,87.51
2023-11-30T09:53:13.574Z,87.73
2023-11-30T09:55:36.598Z,87.33
2023-11-30T09:58:00.268Z,87.31
2023-11-30T10:00:23.501Z,87.68
2023-11-30T10:02:58.727Z,87.66
2023-11-30T10:05:43.186Z,87.98
2023-11-30T10:08:06.382Z,88.13
2023-11-30T10:10:29.094Z,87.94
2023-11-30T10:12:54.421Z,88.33
2023-11-30T10:15:17.623Z,87.71
2023-11-30T10:17:40.471Z,87.84
2023-11-30T10:20:07.468Z,88.09
2023-11-30T10:22:32.588Z,88.86
2023-11-30T10:24:56.198Z,88.98
2023-11-30T10:27:24.291Z,89.03
2023-11-30T10:29:49.397Z,89.19
2023-11-30T10:32:14.610Z,88.93
2023-11-30T10:34:47.607Z,88.96
2023-11-30T10:37:10.961Z,89.01
2023-11-30T10:39:37.847Z,89.11
2023-11-30T10:42:13.188Z,88.76
2023-11-30T10:44:39.492Z,89.07
2023-11-30T10:47:02.640Z,88.68
2023-11-30T10:49:27.315Z,88.24
2023-11-30T10:51:52.227Z,88.35
2023-11-30T10:54:26.726Z,88.90
2023-11-30T10:56:49.802Z,89.01
2023-11-30T10:59:14.177Z,89.21
2023-11-30T11:01:37.637Z,89.17
2023-11-30T11:04:00.796Z,89.13
2023-11-30T11:06:28.138Z,89.23
2023-11-30T11:09:01.269Z,89.19
2023-11-30T11:11:30.194Z,89.07
2023-11-30T11:13:53.048Z,88.55
2023-11-30T11:16:15.919Z,89.03
2023-11-30T11:18:43.540Z,89.12
2023-11-30T11:21:07.129Z,88.98
2023-11-30T11:23:40.804Z,89.13
2023-11-30T11:26:06.687Z,89.32
2023-11-30T11:28:29.920Z,89.84
2023-11-30T11:30:52.943Z,89.82
2023-11-30T11:33:22.506Z,89.82
2023-11-30T11:35:46.712Z,89.85
2023-11-30T11:38:09.636Z,89.86
2023-11-30T11:40:32.478Z,89.83
2023-11-30T11:42:55.853Z,89.89
2023-11-30T11:45:19.426Z,89.97
2023-11-30T11:47:42.411Z,89.72
2023-11-30T11:50:06.764Z,89.94
2023-11-30T11:52:32.118Z,90.05
2023-11-30T11:55:09.898Z,89.45
2023-11-30T11:57:37.524Z,89.96
2023-11-30T12:00:03.470Z,89.80
2023-11-30T12:02:29.829Z,89.87
2023-11-30T12:04:53.752Z,90.05
2023-11-30T12:07:19.167Z,90.02
2023-11-30T12:09:54.747Z,90.31
2023-11-30T12:12:17.886Z,90.34
2023-11-30T12:14:40.934Z,90.29
2023-11-30T12:17:03.875Z,89.97
2023-11-30T12:19:26.563Z,90.57
2023-11-30T12:21:49.627Z,91.12
2023-11-30T12:24:33.094Z,91.08
2023-11-30T12:26:57.461Z,91.16
2023-11-30T12:29:20.548Z,91.36
2023-11-30T12:31:43.380Z,91.04
2023-11-30T12:34:07.715Z,91.48
2023-11-30T12:36:31.115Z,90.81
2023-11-30T12:38:53.944Z,91.08
2023-11-30T12:41:16.868Z,91.37
2023-11-30T12:43:39.847Z,91.41
2023-11-30T12:46:02.804Z,91.33
2023-11-30T12:48:26.366Z,91.68
2023-11-30T12:50:50.006Z,91.93
2023-11-30T12:53:15.649Z,91.73
2023-11-30T12:55:38.650Z,91.72
2023-11-30T12:58:01.473Z,91.65
2023-11-30T13:00:24.909Z,91.78
2023-11-30T13:02:49.038Z,91.83
2023-11-30T13:05:15.531Z,91.52
2023-11-30T13:07:40.913Z,91.64
2023-11-30T13:10:05.037Z,91.68
2023-11-30T13:12:28.083Z,91.99
2023-11-30T13:14:51.002Z,92.13
2023-11-30T13:17:14.598Z,92.19
2023-11-30T13:19:37.454Z,92.35
2023-11-30T13:22:01.008Z,91.87
2023-11-30T13:24:24.636Z,92.04
2023-11-30T13:26:49.245Z,92.36
2023-11-30T13:29:12.248Z,92.38
2023-11-30T13:31:35.131Z,92.61
2023-11-30T13:33:57.993Z,92.69
2023-11-30T13:36:21.518Z,92.60
2023-11-30T13:38:45.387Z,92.74
2023-11-30T13:41:08.411Z,92.75
2023-11-30T13:43:31.293Z,92.86
2023-11-30T13:45:54.376Z,93.16
2023-11-30T13:48:19.190Z,93.22
2023-11-30T13:50:52.513Z,92.66
2023-11-30T13:53:19.177Z,92.64
2023-11-30T13:55:42.024Z,92.67
2023-11-30T13:58:04.899Z,92.68
2023-11-30T14:00:28.123Z,92.83
2023-11-30T14:02:51.084Z,92.71
2023-11-30T14:05:13.892Z,92.66
2023-11-30T14:07:36.893Z,92.95
2023-11-30T14:10:02.911Z,92.94
2023-11-30T14:12:28.655Z,92.64
2023-11-30T14:14:51.420Z,92.88
2023-11-30T14:17:14.769Z,93.03
2023-11-30T14:19:37.571Z,93.08
2023-11-30T14:22:01.049Z,93.13
2023-11-30T14:24:24.154Z,93.39
2023-11-30T14:26:47.544Z,93.56
2023-11-30T14:29:10.422Z,93.77
2023-11-30T14:31:33.635Z,93.75
2023-11-30T14:33:56.740Z,93.82
2023-11-30T14:36:20.322Z,93.58
2023-11-30T14:38:44.857Z,93.64
2023-11-30T14:41:08.210Z,93.70
2023-11-30T14:43:31.102Z,93.83
2023-11-30T14:45:53.960Z,93.80
2023-11-30T14:48:18.479Z,93.84
2023-11-30T14:50:42.689Z,93.75
2023-11-30T14:53:06.092Z,93.70
2023-11-30T14:55:28.762Z,93.61
2023-11-30T14:57:51.509Z,93.77
2023-11-30T15:00:22.173Z,93.75
2023-11-30T15:02:45.439Z,93.69
2023-11-30T15:05:10.882Z,93.90
2023-11-30T15:07:33.975Z,93.96
2023-11-30T15:09:57.131Z,93.77
2023-11-30T15:12:20.664Z,93.84
2023-11-30T15:14:43.550Z,93.88
2023-11-30T15:17:06.554Z,94.08
2023-11-30T15:19:29.413Z,94.26
2023-11-30T15:21:52.252Z,94.20
2023-11-30T15:24:18.798Z,93.93
2023-11-30T15:26:41.939Z,93.73
2023-11-30T15:29:05.221Z,93.81
2023-11-30T15:31:28.262Z,93.77
2023-11-30T15:33:51.502Z,93.62
2023-11-30T15:36:19.743Z,93.90
2023-11-30T15:38:43.056Z,94.07
2023-11-30T15:41:05.926Z,94.05
2023-11-30T15:43:28.588Z,94.20
2023-11-30T15:45:51.440Z,94.07
2023-11-30T15:48:18.588Z,94.12
2023-11-30T15:50:41.586Z,94.02
2023-11-30T15:53:04.341Z,94.04
2023-11-30T15:55:27.493Z,94.15
2023-11-30T15:57:50.269Z,94.32
2023-11-30T16:00:14.781Z,94.20
2023-11-30T16:02:42.779Z,94.04
2023-11-30T16:05:06.271Z,94.27
2023-11-30T16:07:29.036Z,94.38
2023-11-30T16:09:51.826Z,94.41
2023-11-30T16:12:18.490Z,94.34
2023-11-30T16:14:41.707Z,94.34
2023-11-30T16:17:04.547Z,94.36
2023-11-30T16:19:27.197Z,94.43
2023-11-30T16:21:53.506Z,94.54
2023-11-30T16:24:18.115Z,94.41
2023-11-30T16:26:41.270Z,94.16
2023-11-30T16:29:04.120Z,94.29
2023-11-30T16:31:26.875Z,94.36
2023-11-30T16:33:52.556Z,94.44
2023-11-30T16:36:19.522Z,94.64
2023-11-30T16:38:42.798Z,94.57
2023-11-30T16:41:05.936Z,94.59
2023-11-30T16:43:28.978Z,94.52
2023-11-30T16:45:51.770Z,94.50
2023-11-30T16:48:16.899Z,94.69
2023-11-30T16:50:42.924Z,94.74
2023-11-30T16:53:05.864Z,94.89
2023-11-30T16:55:28.555Z,94.94
2023-11-30T16:57:51.263Z,94.97
2023-11-30T17:00:17.153Z,94.97
2023-11-30T17:02:40.476Z,94.87
2023-11-30T17:05:03.348Z,94.73
2023-11-30T17:07:26.337Z,94.54
2023-11-30T17:09:49.837Z,94.65
2023-11-30T17:12:14.734Z,94.72
2023-11-30T17:14:39.503Z,94.77
2023-11-30T17:17:02.214Z,94.60
2023-11-30T17:19:25.038Z,94.57
2023-11-30T17:21:50.233Z,94.57
2023-11-30T17:24:15.093Z,94.55
2023-11-30T17:26:39.447Z,94.62
2023-11-30T17:29:02.186Z,94.57
2023-11-30T17:31:24.859Z,94.65
2023-11-30T17:33:48.234Z,94.67
2023-11-30T17:36:17.247Z,94.75
2023-11-30T17:38:40.813Z,94.74
2023-11-30T17:41:03.825Z,94.96
2023-11-30T17:43:26.621Z,94.99
2023-11-30T17:45:49.301Z,95.04
2023-11-30T17:48:17.691Z,95.18
2023-11-30T17:50:41.056Z,95.25
2023-11-30T17:53:04.260Z,95.29
2023-11-30T17:55:27.253Z,95.34
2023-11-30T17:57:50.057Z,95.35
2023-11-30T18:00:15.911Z,95.32
2023-11-30T18:02:43.605Z,95.31
2023-11-30T18:05:06.577Z,95.27
2023-11-30T18:07:29.171Z,95.31
2023-11-30T18:09:52.031Z,95.27
2023-11-30T18:12:17.369Z,95.29
2023-11-30T18:14:42.632Z,95.28
2023-11-30T18:17:06.072Z,95.25
2023-11-30T18:19:29.750Z,95.25
2023-11-30T18:21:52.492Z,95.32
2023-11-30T18:24:16.919Z,95.42
2023-11-30T18:26:40.193Z,95.46
2023-11-30T18:29:03.231Z,95.51
2023-11-30T18:31:25.958Z,95.60
2023-11-30T18:33:49.699Z,95.57
2023-11-30T18:36:15.051Z,95.50
2023-11-30T18:38:44.156Z,95.40
2023-11-30T18:41:13.722Z,95.46
2023-11-30T18:43:36.417Z,95.49
2023-11-30T18:45:59.260Z,95.43
2023-11-30T18:48:23.264Z,95.39
2023-11-30T18:50:46.288Z,95.30
2023-11-30T18:53:09.395Z,95.31
2023-11-30T18:55:32.073Z,95.26
2023-11-30T18:57:55.498Z,95.13
2023-11-30T19:00:19.808Z,95.14
2023-11-30T19:02:42.840Z,95.19
2023-11-30T19:05:08.676Z,95.34
2023-11-30T19:07:33.796Z,95.43
2023-11-30T19:09:57.339Z,95.38
2023-11-30T19:12:20.649Z,95.53
2023-11-30T19:14:43.804Z,95.61
2023-11-30T19:17:06.709Z,95.70
2023-11-30T19:19:29.667Z,95.68
2023-11-30T19:21:52.458Z,95.70
2023-11-30T19:24:18.243Z,95.69
2023-11-30T19:26:41.268Z,95.66
2023-11-30T19:29:04.987Z,95.79
2023-11-30T19:31:27.714Z,95.86
2023-11-30T19:33:50.638Z,95.73
2023-11-30T19:36:18.343Z,95.70
2023-11-30T19:38:41.445Z,95.68
2023-11-30T19:41:04.285Z,95.63
2023-11-30T19:43:27.480Z,95.42
2023-11-30T19:45:50.529Z,95.23
2023-11-30T19:48:14.724Z,95.18
2023-11-30T19:50:38.378Z,95.08
2023-11-30T19:53:01.229Z,94.96
2023-11-30T19:55:24.310Z,95.01
2023-11-30T19:57:47.050Z,95.04
2023-11-30T20:00:10.522Z,95.11
2023-11-30T20:02:37.389Z,95.03
2023-11-30T20:05:00.349Z,94.80
2023-11-30T20:07:23.799Z,94.69
2023-11-30T20:09:46.529Z,94.60
2023-11-30T20:12:13.630Z,94.57
2023-11-30T20:14:42.140Z,94.54
2023-11-30T20:17:05.057Z,94.55
2023-11-30T20:19:27.841Z,94.17
2023-11-30T20:21:50.587Z,94.00
2023-11-30T20:24:13.687Z,94.06
2023-11-30T20:26:40.447Z,94.30
2023-11-30T20:29:03.112Z,94.23
2023-11-30T20:31:25.961Z,94.06
2023-11-30T20:33:51.350Z,93.84
2023-11-30T20:36:18.411Z,93.94
2023-11-30T20:38:41.450Z,94.06
2023-11-30T20:41:04.341Z,94.06
2023-11-30T20:43:27.133Z,93.99
2023-11-30T20:45:49.966Z,94.28
2023-11-30T20:48:14.586Z,94.32
2023-11-30T20:50:39.938Z,94.02
2023-11-30T20:53:02.536Z,93.86
2023-11-30T20:55:25.260Z,93.38
2023-11-30T20:57:48.391Z,93.33
2023-11-30T21:00:20.625Z,93.58
2023-11-30T21:02:43.653Z,93.89
2023-11-30T21:05:06.956Z,94.06
2023-11-30T21:07:29.705Z,94.03
2023-11-30T21:09:52.433Z,94.27
2023-11-30T21:12:16.892Z,94.07
2023-11-30T21:14:39.908Z,94.12
2023-11-30T21:17:02.763Z,94.30
2023-11-30T21:19:26.585Z,94.38
2023-11-30T21:21:49.485Z,94.35
2023-11-30T21:24:15.431Z,93.88
2023-11-30T21:26:39.508Z,93.75
2023-11-30T21:29:02.149Z,93.62
2023-11-30T21:31:24.965Z,93.71
2023-11-30T21:33:47.688Z,93.80
2023-11-30T21:36:17.318Z,93.64
2023-11-30T21:38:40.343Z,93.96
2023-11-30T21:41:03.084Z,93.95
2023-11-30T21:43:26.726Z,93.96
2023-11-30T21:45:49.653Z,94.11
2023-11-30T21:48:19.473Z,94.22
2023-11-30T21:50:43.962Z,94.17
2023-11-30T21:53:06.681Z,94.27
2023-11-30T21:55:29.427Z,94.25
2023-11-30T21:57:52.068Z,94.10
2023-11-30T22:00:18.974Z,94.13
2023-11-30T22:02:47.422Z,93.99
2023-11-30T22:05:11.234Z,93.83
2023-11-30T22:07:35.143Z,94.17
2023-11-30T22:09:58.696Z,94.43
2023-11-30T22:12:21.858Z,94.30
2023-11-30T22:14:44.902Z,94.09
2023-11-30T22:17:08.091Z,94.14
2023-11-30T22:19:31.226Z,94.32
2023-11-30T22:21:54.092Z,94.41
2023-11-30T22:24:18.674Z,94.46
2023-11-30T22:26:42.374Z,94.41
2023-11-30T22:29:05.208Z,94.37
2023-11-30T22:31:28.930Z,94.31
2023-11-30T22:33:51.678Z,93.49
2023-11-30T22:36:18.976Z,93.64
2023-11-30T22:38:46.180Z,93.84
2023-11-30T22:41:11.989Z,94.12
2023-11-30T22:43:34.715Z,94.13
2023-11-30T22:45:57.514Z,93.89
2023-11-30T22:48:20.744Z,93.41
2023-11-30T22:50:43.851Z,92.99
2023-11-30T22:53:06.676Z,93.55
2023-11-30T22:55:29.539Z,93.88
2023-11-30T22:57:52.453Z,93.98
2023-11-30T23:00:21.965Z,93.64
2023-11-30T23:02:45.473Z,93.03
2023-11-30T23:05:10.571Z,93.10
2023-11-30T23:07:33.431Z,93.49
2023-11-30T23:09:56.175Z,93.53
2023-11-30T23:12:19.449Z,93.81
2023-11-30T23:14:42.645Z,93.71
2023-11-30T23:17:05.638Z,93.54
2023-11-30T23:19:30.902Z,93.69
2023-11-30T23:21:54.465Z,93.62
2023-11-30T23:24:25.861Z,93.07
2023-11-30T23:26:52.024Z,92.99
2023-11-30T23:29:14.779Z,93.26
2023-11-30T23:31:37.678Z,93.29
2023-11-30T23:34:00.543Z,93.23
2023-11-30T23:36:24.122Z,93.06
2023-11-30T23:38:47.129Z,92.86
2023-11-30T23:41:10.118Z,92.77
2023-11-30T23:43:32.989Z,92.87
2023-11-30T23:45:55.816Z,93.14
2023-11-30T23:48:19.108Z,93.08
2023-11-30T23:50:42.179Z,93.09
2023-11-30T23:53:04.832Z,93.05
2023-11-30T23:55:27.634Z,93.23
2023-11-30T23:57:50.385Z,93.14
